createdAt,value
2018-05-29T00:02:05.566Z,19.83
2018-05-29T00:04:33.094Z,19.75
2018-05-29T00:07:00.615Z,19.23
2018-05-29T00:09:28.134Z,19.10
2018-05-29T00:11:55.651Z,18.80
2018-05-29T00:14:23.179Z,20.30
2018-05-29T00:16:50.734Z,20.30
2018-05-29T00:19:18.266Z,19.70
2018-05-29T00:21:45.812Z,20.05
2018-05-29T00:24:13.766Z,20.55
2018-05-29T00:26:41.308Z,20.20
2018-05-29T00:29:08.900Z,20.00
2018-05-29T00:31:36.422Z,21.58
2018-05-29T00:34:04.428Z,19.77
2018-05-29T00:36:31.961Z,20.27
2018-05-29T00:38:59.483Z,21.35
2018-05-29T00:41:27.014Z,21.45
2018-05-29T00:43:54.536Z,20.80
2018-05-29T00:46:22.058Z,20.55
2018-05-29T00:48:49.579Z,20.83
2018-05-29T00:51:17.103Z,21.10
2018-05-29T00:53:45.544Z,20.95
2018-05-29T00:56:13.055Z,20.70
2018-05-29T00:58:40.579Z,20.65
2018-05-29T01:01:08.094Z,21.25
2018-05-29T01:03:36.375Z,21.08
2018-05-29T01:06:03.899Z,22.52
2018-05-29T01:08:31.457Z,21.27
2018-05-29T01:10:58.990Z,22.02
2018-05-29T01:13:26.517Z,21.92
2018-05-29T01:15:54.036Z,23.40
2018-05-29T01:18:21.599Z,23.10
2018-05-29T01:20:49.120Z,24.00
2018-05-29T01:23:16.643Z,24.52
2018-05-29T01:25:44.679Z,23.92
2018-05-29T01:28:12.825Z,23.62
2018-05-29T01:30:40.428Z,24.77
2018-05-29T01:33:07.953Z,24.37
2018-05-29T01:35:35.470Z,23.87
2018-05-29T01:38:03.020Z,22.55
2018-05-29T01:40:30.540Z,24.67
2018-05-29T01:42:58.082Z,25.77
2018-05-29T01:45:25.608Z,25.17
2018-05-29T01:47:53.146Z,26.75
2018-05-29T01:50:20.682Z,26.40
2018-05-29T01:52:48.222Z,27.13
2018-05-29T01:55:15.749Z,25.05
2018-05-29T01:57:43.382Z,26.83
2018-05-29T02:00:10.920Z,27.77
2018-05-29T02:02:38.442Z,27.05
2018-05-29T02:05:05.967Z,27.23
2018-05-29T02:07:33.483Z,28.02
2018-05-29T02:10:01.011Z,28.38
2018-05-29T02:12:28.526Z,28.90
2018-05-29T02:14:56.049Z,28.12
2018-05-29T02:17:23.570Z,30.60
2018-05-29T02:19:51.088Z,29.67
2018-05-29T02:22:18.619Z,27.45
2018-05-29T02:24:46.139Z,28.17
2018-05-29T02:27:13.663Z,27.35
2018-05-29T02:29:41.192Z,26.83
2018-05-29T02:32:09.496Z,26.30
2018-05-29T02:34:37.519Z,25.40
2018-05-29T02:37:05.045Z,28.50
2018-05-29T02:39:32.767Z,28.12
2018-05-29T02:42:00.283Z,27.55
2018-05-29T02:44:27.803Z,29.45
2018-05-29T02:46:55.320Z,29.00
2018-05-29T02:49:22.843Z,29.10
2018-05-29T02:51:50.369Z,29.30
2018-05-29T02:54:18.666Z,30.05
2018-05-29T02:56:46.891Z,29.75
2018-05-29T02:59:14.409Z,30.00
2018-05-29T03:01:41.935Z,29.48
2018-05-29T03:04:09.463Z,30.27
2018-05-29T03:06:36.979Z,29.65
2018-05-29T03:09:05.408Z,32.42
2018-05-29T03:11:32.935Z,31.48
2018-05-29T03:14:00.475Z,31.87
2018-05-29T03:16:27.999Z,31.73
2018-05-29T03:18:55.530Z,32.33
2018-05-29T03:21:23.052Z,32.05
2018-05-29T03:23:50.574Z,31.20
2018-05-29T03:26:18.101Z,31.23
2018-05-29T03:28:45.619Z,31.00
2018-05-29T03:31:13.142Z,32.03
2018-05-29T03:33:40.668Z,31.90
2018-05-29T03:36:08.186Z,32.10
2018-05-29T03:38:35.708Z,32.88
2018-05-29T03:41:03.236Z,31.90
2018-05-29T03:43:30.772Z,33.15
2018-05-29T03:45:58.290Z,32.47
2018-05-29T03:48:25.834Z,31.52
2018-05-29T03:50:53.351Z,32.03
2018-05-29T03:53:20.871Z,32.08
2018-05-29T03:55:48.394Z,32.67
2018-05-29T03:58:16.692Z,33.58
2018-05-29T04:00:44.211Z,35.63
2018-05-29T04:03:11.727Z,34.38
2018-05-29T04:05:39.257Z,34.42
2018-05-29T04:08:07.547Z,35.88
2018-05-29T04:10:35.886Z,35.22
2018-05-29T04:13:03.724Z,34.88
2018-05-29T04:15:31.245Z,35.45
2018-05-29T04:17:58.766Z,36.22
2018-05-29T04:20:26.292Z,35.83
2018-05-29T04:22:54.071Z,36.22
2018-05-29T04:25:21.595Z,36.00
2018-05-29T04:27:49.119Z,35.83
2018-05-29T04:30:16.647Z,35.97
2018-05-29T04:32:44.483Z,34.25
2018-05-29T04:35:12.016Z,35.60
2018-05-29T04:37:39.538Z,35.55
2018-05-29T04:40:07.054Z,36.70
2018-05-29T04:42:34.578Z,35.50
2018-05-29T04:45:02.109Z,36.53
2018-05-29T04:47:29.619Z,34.17
2018-05-29T04:49:57.148Z,34.92
2018-05-29T04:52:24.666Z,36.63
2018-05-29T04:54:52.191Z,36.15
2018-05-29T04:57:19.730Z,36.45
2018-05-29T04:59:47.258Z,34.95
2018-05-29T05:02:14.771Z,36.45
2018-05-29T05:04:42.291Z,35.22
2018-05-29T05:07:09.812Z,35.78
2018-05-29T05:09:37.361Z,35.38
2018-05-29T05:12:04.891Z,35.83
2018-05-29T05:14:32.418Z,35.90
2018-05-29T05:16:59.946Z,35.53
2018-05-29T05:19:27.468Z,35.28
2018-05-29T05:21:54.983Z,34.78
2018-05-29T05:24:22.771Z,33.72
2018-05-29T05:26:50.287Z,34.22
2018-05-29T05:29:17.808Z,33.95
2018-05-29T05:31:45.327Z,34.30
2018-05-29T05:34:12.850Z,32.95
2018-05-29T05:36:40.363Z,33.92
2018-05-29T05:39:08.144Z,31.92
2018-05-29T05:41:35.716Z,33.72
2018-05-29T05:44:03.235Z,32.55
2018-05-29T05:46:30.763Z,31.73
2018-05-29T05:48:58.578Z,32.20
2018-05-29T05:51:26.851Z,31.48
2018-05-29T05:53:54.768Z,31.50
2018-05-29T05:56:22.304Z,31.75
2018-05-29T05:58:49.819Z,28.50
2018-05-29T06:01:17.340Z,27.15
2018-05-29T06:03:44.855Z,24.85
2018-05-29T06:06:12.397Z,23.80
2018-05-29T06:08:39.926Z,24.10
2018-05-29T06:11:07.455Z,23.75
2018-05-29T06:13:35.178Z,22.40
2018-05-29T06:16:02.770Z,22.05
2018-05-29T06:18:30.292Z,20.42
2018-05-29T06:20:57.811Z,18.92
2018-05-29T06:23:25.376Z,19.55
2018-05-29T06:25:52.906Z,21.02
2018-05-29T06:28:20.439Z,21.75
2018-05-29T06:30:48.211Z,19.58
2018-05-29T06:33:15.722Z,17.58
2018-05-29T06:35:43.353Z,17.50
2018-05-29T06:38:10.903Z,17.77
2018-05-29T06:40:38.447Z,16.60
2018-05-29T06:43:05.975Z,15.98
2018-05-29T06:45:33.527Z,15.77
2018-05-29T06:48:01.052Z,15.15
2018-05-29T06:50:28.732Z,14.18
2018-05-29T06:52:56.251Z,13.30
2018-05-29T06:55:23.776Z,13.80
2018-05-29T06:57:52.117Z,13.65
2018-05-29T07:00:20.368Z,13.13
2018-05-29T07:02:47.893Z,12.20
2018-05-29T07:05:15.411Z,13.05
2018-05-29T07:07:42.935Z,12.65
2018-05-29T07:10:11.220Z,12.57
2018-05-29T07:12:38.751Z,11.40
2018-05-29T07:15:06.270Z,11.52
2018-05-29T07:17:33.798Z,11.82
2018-05-29T07:20:02.089Z,30.27
2018-05-29T07:22:29.603Z,10.98
2018-05-29T07:24:57.119Z,11.50
2018-05-29T07:27:24.643Z,12.65
2018-05-29T07:29:52.929Z,12.63
2018-05-29T07:32:20.447Z,13.57
2018-05-29T07:34:47.972Z,14.32
2018-05-29T07:37:15.493Z,14.73
2018-05-29T07:39:43.019Z,14.57
2018-05-29T07:42:10.571Z,14.38
2018-05-29T07:44:38.167Z,14.60
2018-05-29T07:47:05.687Z,12.93
2018-05-29T07:49:33.208Z,13.02
2018-05-29T07:52:00.796Z,12.37
2018-05-29T07:54:29.922Z,11.50
2018-05-29T07:56:57.441Z,10.88
2018-05-29T07:59:24.964Z,10.35
2018-05-29T08:01:52.504Z,10.63
2018-05-29T08:04:20.008Z,9.77
2018-05-29T08:06:48.382Z,9.20
2018-05-29T08:09:15.900Z,9.60
2018-05-29T08:11:43.428Z,9.45
2018-05-29T08:14:10.963Z,9.40
2018-05-29T08:16:39.242Z,9.82
2018-05-29T08:19:07.544Z,10.23
2018-05-29T08:21:35.167Z,9.70
2018-05-29T08:24:02.719Z,9.27
2018-05-29T08:26:30.227Z,9.68
2018-05-29T08:28:57.786Z,10.25
2018-05-29T08:31:25.302Z,9.48
2018-05-29T08:33:52.815Z,9.10
2018-05-29T08:36:20.326Z,11.68
2018-05-29T08:38:47.848Z,18.67
2018-05-29T08:41:15.359Z,8.85
2018-05-29T08:43:42.873Z,9.43
2018-05-29T08:46:11.180Z,11.45
2018-05-29T08:48:38.700Z,9.52
2018-05-29T08:51:06.223Z,10.10
2018-05-29T08:53:33.743Z,11.02
2018-05-29T08:56:01.284Z,11.73
2018-05-29T08:58:28.816Z,12.77
2018-05-29T09:00:56.339Z,13.90
2018-05-29T09:03:24.631Z,14.45
2018-05-29T09:05:52.155Z,13.20
2018-05-29T09:08:19.679Z,13.27
2018-05-29T09:10:47.199Z,12.82
2018-05-29T09:13:16.591Z,11.32
2018-05-29T09:15:47.318Z,10.68
2018-05-29T09:18:14.836Z,9.93
2018-05-29T09:20:42.359Z,9.52
2018-05-29T09:23:09.884Z,8.90
2018-05-29T09:25:37.424Z,8.70
2018-05-29T09:28:04.947Z,10.02
2018-05-29T09:30:32.460Z,10.15
2018-05-29T09:33:01.199Z,9.40
2018-05-29T09:35:28.727Z,8.70
2018-05-29T09:37:56.255Z,8.60
2018-05-29T09:40:23.834Z,8.82
2018-05-29T09:42:51.313Z,8.85
2018-05-29T09:45:18.836Z,9.25
2018-05-29T09:47:46.357Z,12.20
2018-05-29T09:50:13.874Z,9.52
2018-05-29T09:52:41.399Z,11.45
2018-05-29T09:55:08.929Z,9.25
2018-05-29T09:57:36.443Z,9.75
2018-05-29T10:00:03.958Z,9.90
2018-05-29T10:02:32.244Z,11.80
2018-05-29T10:05:00.531Z,9.95
2018-05-29T10:07:28.051Z,10.45
2018-05-29T10:09:55.588Z,10.63
2018-05-29T10:12:23.094Z,10.25
2018-05-29T10:14:51.366Z,10.90
2018-05-29T10:17:19.650Z,11.98
2018-05-29T10:19:47.942Z,11.35
2018-05-29T10:22:15.472Z,11.57
2018-05-29T10:24:43.055Z,12.07
2018-05-29T10:27:11.387Z,12.77
2018-05-29T10:29:38.916Z,11.43
2018-05-29T10:32:06.446Z,11.23
2018-05-29T10:34:33.966Z,11.07
2018-05-29T10:37:01.504Z,12.07
2018-05-29T10:39:29.023Z,11.65
2018-05-29T10:41:56.549Z,12.50
2018-05-29T10:44:24.337Z,12.07
2018-05-29T10:46:51.869Z,11.38
2018-05-29T10:49:19.391Z,12.60
2018-05-29T10:51:46.919Z,11.48
2018-05-29T10:54:14.448Z,12.55
2018-05-29T10:56:41.980Z,12.25
2018-05-29T10:59:09.531Z,11.10
2018-05-29T11:01:37.062Z,11.45
2018-05-29T11:04:04.608Z,11.45
2018-05-29T11:06:32.140Z,10.57
2018-05-29T11:08:59.676Z,11.85
2018-05-29T11:11:27.195Z,11.27
2018-05-29T11:13:54.715Z,11.65
2018-05-29T11:16:22.235Z,12.05
2018-05-29T11:18:49.755Z,11.00
2018-05-29T11:21:17.271Z,10.73
2018-05-29T11:23:44.795Z,14.52
2018-05-29T11:26:12.322Z,11.27
2018-05-29T11:28:39.868Z,10.45
2018-05-29T11:31:07.405Z,11.88
2018-05-29T11:33:36.749Z,11.77
2018-05-29T11:36:04.275Z,11.75
2018-05-29T11:38:31.791Z,11.52
2018-05-29T11:40:59.308Z,12.18
2018-05-29T11:43:26.863Z,11.07
2018-05-29T11:45:54.372Z,12.27
2018-05-29T11:48:21.898Z,12.10
2018-05-29T11:50:49.415Z,11.15
2018-05-29T11:53:16.947Z,11.80
2018-05-29T11:55:44.477Z,11.65
2018-05-29T11:58:12.271Z,11.98
2018-05-29T12:00:39.830Z,11.95
2018-05-29T12:03:07.323Z,11.57
2018-05-29T12:05:34.865Z,12.98
2018-05-29T12:08:02.387Z,11.77
2018-05-29T12:10:30.214Z,12.20
2018-05-29T12:12:57.738Z,11.98
2018-05-29T12:15:25.271Z,11.80
2018-05-29T12:17:52.792Z,12.60
2018-05-29T12:20:20.307Z,13.05
2018-05-29T12:22:47.831Z,13.23
2018-05-29T12:25:15.366Z,12.73
2018-05-29T12:27:42.892Z,12.82
2018-05-29T12:30:11.226Z,15.82
2018-05-29T12:32:38.764Z,11.93
2018-05-29T12:35:06.291Z,13.25
2018-05-29T12:37:33.814Z,12.88
2018-05-29T12:40:01.331Z,13.05
2018-05-29T12:42:28.859Z,13.00
2018-05-29T12:44:56.371Z,11.85
2018-05-29T12:47:23.891Z,12.35
2018-05-29T12:49:51.410Z,12.70
2018-05-29T12:52:19.081Z,13.18
2018-05-29T12:54:46.831Z,12.75
2018-05-29T12:57:14.377Z,12.90
2018-05-29T12:59:41.898Z,13.57
2018-05-29T13:02:09.428Z,13.43
2018-05-29T13:04:36.951Z,12.55
2018-05-29T13:07:04.479Z,12.30
2018-05-29T13:09:32.003Z,12.07
2018-05-29T13:11:59.783Z,11.93
2018-05-29T13:14:27.318Z,12.68
2018-05-29T13:16:54.845Z,12.75
2018-05-29T13:19:22.366Z,13.07
2018-05-29T13:21:49.893Z,12.80
2018-05-29T13:24:17.430Z,13.52
2018-05-29T13:26:44.951Z,13.65
2018-05-29T13:29:12.462Z,26.25
2018-05-29T13:31:39.991Z,15.25
2018-05-29T13:34:07.508Z,13.43
2018-05-29T13:36:35.028Z,13.88
2018-05-29T13:39:02.543Z,14.45
2018-05-29T13:41:30.082Z,13.57
2018-05-29T13:43:57.610Z,14.13
2018-05-29T13:46:25.151Z,14.55
2018-05-29T13:48:52.672Z,14.68
2018-05-29T13:51:20.228Z,14.80
2018-05-29T13:53:47.746Z,15.32
2018-05-29T13:56:15.286Z,14.27
2018-05-29T13:58:42.812Z,15.18
2018-05-29T14:01:10.338Z,14.77
2018-05-29T14:03:37.860Z,14.45
2018-05-29T14:06:05.380Z,14.95
2018-05-29T14:08:32.899Z,14.75
2018-05-29T14:11:00.425Z,16.67
2018-05-29T14:13:27.938Z,15.02
2018-05-29T14:15:55.464Z,14.73
2018-05-29T14:18:22.995Z,13.75
2018-05-29T14:20:50.528Z,13.90
2018-05-29T14:23:18.055Z,14.30
2018-05-29T14:25:45.574Z,14.73
2018-05-29T14:28:13.086Z,13.68
2018-05-29T14:30:40.606Z,12.05
2018-05-29T14:33:08.126Z,10.63
2018-05-29T14:35:35.655Z,14.95
2018-05-29T14:38:03.178Z,21.40
2018-05-29T14:40:30.692Z,14.95
2018-05-29T14:42:58.223Z,12.20
2018-05-29T14:45:26.424Z,11.18
2018-05-29T14:47:53.948Z,13.00
2018-05-29T14:50:21.466Z,12.65
2018-05-29T14:52:48.988Z,10.68
2018-05-29T14:55:17.271Z,13.73
2018-05-29T14:57:44.793Z,10.88
2018-05-29T15:00:12.312Z,10.93
2018-05-29T15:02:40.595Z,11.45
2018-05-29T15:05:08.125Z,11.60
2018-05-29T15:07:35.657Z,10.48
2018-05-29T15:10:03.179Z,11.55
2018-05-29T15:12:31.463Z,15.32
2018-05-29T15:14:58.999Z,11.65
2018-05-29T15:17:26.523Z,11.98
2018-05-29T15:19:54.038Z,12.07
2018-05-29T15:22:21.557Z,13.82
2018-05-29T15:24:49.102Z,22.52
2018-05-29T15:27:16.619Z,13.18
2018-05-29T15:29:44.134Z,12.80
2018-05-29T15:32:11.667Z,12.77
2018-05-29T15:34:39.191Z,13.50
2018-05-29T15:37:06.720Z,14.20
2018-05-29T15:39:34.235Z,13.23
2018-05-29T15:42:02.458Z,13.55
2018-05-29T15:44:29.975Z,13.15
2018-05-29T15:46:57.495Z,14.27
2018-05-29T15:49:25.016Z,14.93
2018-05-29T15:51:52.539Z,15.98
2018-05-29T15:54:20.063Z,13.43
2018-05-29T15:56:47.590Z,14.43
2018-05-29T15:59:15.121Z,13.85
2018-05-29T16:01:42.686Z,14.60
2018-05-29T16:04:10.192Z,13.95
2018-05-29T16:06:37.725Z,13.48
2018-05-29T16:09:05.245Z,13.02
2018-05-29T16:11:33.787Z,13.40
2018-05-29T16:14:01.368Z,13.02
2018-05-29T16:16:28.879Z,13.32
2018-05-29T16:18:56.412Z,14.40
2018-05-29T16:21:23.939Z,13.60
2018-05-29T16:23:52.279Z,14.00
2018-05-29T16:26:19.804Z,14.00
2018-05-29T16:28:47.327Z,15.13
2018-05-29T16:31:14.857Z,12.37
2018-05-29T16:33:42.378Z,12.73
2018-05-29T16:36:10.670Z,13.27
2018-05-29T16:38:38.205Z,14.48
2018-05-29T16:41:05.740Z,12.40
2018-05-29T16:43:34.069Z,15.73
2018-05-29T16:46:01.587Z,12.73
2018-05-29T16:48:29.121Z,18.25
2018-05-29T16:50:56.642Z,11.43
2018-05-29T16:53:24.956Z,11.45
2018-05-29T16:55:52.478Z,13.80
2018-05-29T16:58:20.019Z,10.02
2018-05-29T17:00:47.531Z,9.77
2018-05-29T17:03:15.064Z,14.48
2018-05-29T17:05:42.582Z,9.35
2018-05-29T17:08:10.119Z,9.88
2018-05-29T17:10:37.638Z,11.48
2018-05-29T17:13:05.159Z,9.30
2018-05-29T17:15:32.675Z,9.52
2018-05-29T17:18:00.200Z,10.57
2018-05-29T17:20:27.759Z,11.75
2018-05-29T17:22:55.284Z,13.38
2018-05-29T17:25:22.801Z,19.12
2018-05-29T17:27:51.093Z,11.90
2018-05-29T17:30:18.624Z,12.52
2018-05-29T17:32:46.145Z,11.25
2018-05-29T17:35:13.668Z,13.77
2018-05-29T17:37:41.205Z,16.87
2018-05-29T17:40:08.726Z,11.95
2018-05-29T17:42:36.258Z,12.15
2018-05-29T17:45:03.803Z,12.70
2018-05-29T17:47:32.093Z,11.30
2018-05-29T17:49:59.637Z,11.65
2018-05-29T17:52:27.171Z,10.88
2018-05-29T17:54:54.723Z,11.73
2018-05-29T17:57:22.235Z,10.80
2018-05-29T17:59:49.860Z,10.55
2018-05-29T18:02:17.415Z,10.55
2018-05-29T18:04:44.981Z,11.45
2018-05-29T18:07:12.879Z,11.52
2018-05-29T18:09:40.426Z,11.32
2018-05-29T18:12:08.719Z,12.50
2018-05-29T18:14:36.307Z,11.88
2018-05-29T18:17:03.846Z,12.13
2018-05-29T18:19:31.389Z,12.95
2018-05-29T18:21:58.922Z,14.32
2018-05-29T18:24:26.463Z,14.13
2018-05-29T18:26:53.991Z,16.08
2018-05-29T18:29:21.559Z,18.85
2018-05-29T18:31:49.102Z,18.95
2018-05-29T18:34:16.644Z,19.85
2018-05-29T18:36:44.167Z,18.70
2018-05-29T18:39:11.879Z,18.87
2018-05-29T18:41:39.452Z,19.10
2018-05-29T18:44:07.939Z,18.70
2018-05-29T18:46:35.531Z,19.42
2018-05-29T18:49:03.102Z,20.50
2018-05-29T18:51:30.657Z,24.23
2018-05-29T18:53:58.718Z,20.08
2018-05-29T18:56:26.287Z,19.70
2018-05-29T18:58:53.807Z,18.95
2018-05-29T19:01:21.339Z,17.30
2018-05-29T19:03:48.863Z,15.70
2018-05-29T19:06:17.959Z,14.13
2018-05-29T19:08:45.499Z,12.43
2018-05-29T19:11:13.048Z,11.93
2018-05-29T19:13:40.588Z,11.20
2018-05-29T19:16:08.119Z,11.27
2018-05-29T19:18:35.650Z,12.48
2018-05-29T19:21:03.170Z,11.15
2018-05-29T19:23:30.682Z,12.50
2018-05-29T19:25:58.247Z,11.43
2018-05-29T19:28:25.779Z,13.13
2018-05-29T19:30:53.295Z,11.45
2018-05-29T19:33:20.832Z,11.95
2018-05-29T19:35:48.380Z,11.88
2018-05-29T19:38:15.907Z,11.65
2018-05-29T19:40:43.443Z,11.90
2018-05-29T19:43:11.148Z,12.35
2018-05-29T19:45:38.699Z,13.20
2018-05-29T19:48:06.224Z,12.63
2018-05-29T19:50:33.769Z,11.85
2018-05-29T19:53:01.319Z,11.63
2018-05-29T19:55:29.422Z,12.32
2018-05-29T19:57:57.851Z,12.73
2018-05-29T20:00:25.744Z,12.35
2018-05-29T20:02:55.128Z,11.85
2018-05-29T20:05:22.664Z,12.25
2018-05-29T20:07:50.197Z,13.48
2018-05-29T20:10:18.621Z,13.55
2018-05-29T20:12:46.146Z,14.23
2018-05-29T20:15:14.468Z,13.68
2018-05-29T20:17:42.080Z,12.70
2018-05-29T20:20:10.544Z,13.23
2018-05-29T20:22:38.843Z,13.23
2018-05-29T20:25:07.148Z,14.65
2018-05-29T20:27:35.090Z,13.75
2018-05-29T20:30:02.747Z,14.93
2018-05-29T20:32:31.047Z,14.93
2018-05-29T20:34:58.887Z,15.00
2018-05-29T20:37:26.461Z,14.45
2018-05-29T20:39:54.752Z,15.05
2018-05-29T20:42:22.472Z,15.93
2018-05-29T20:44:50.082Z,14.82
2018-05-29T20:47:17.649Z,14.75
2018-05-29T20:49:45.579Z,14.82
2018-05-29T20:52:14.537Z,14.60
2018-05-29T20:54:42.065Z,15.60
2018-05-29T20:57:10.544Z,15.50
2018-05-29T20:59:38.064Z,14.43
2018-05-29T21:02:05.595Z,14.05
2018-05-29T21:04:33.746Z,13.65
2018-05-29T21:07:02.868Z,14.68
2018-05-29T21:09:30.403Z,15.80
2018-05-29T21:11:57.945Z,14.48
2018-05-29T21:14:26.234Z,13.27
2018-05-29T21:16:53.755Z,15.02
2018-05-29T21:19:22.057Z,13.13
2018-05-29T21:21:50.738Z,13.27
2018-05-29T21:24:19.052Z,16.02
2018-05-29T21:26:46.609Z,13.52
2018-05-29T21:29:14.129Z,13.18
2018-05-29T21:31:41.957Z,14.32
2018-05-29T21:34:10.306Z,13.93
2018-05-29T21:36:38.119Z,15.70
2018-05-29T21:39:05.697Z,13.68
2018-05-29T21:41:33.219Z,13.60
2018-05-29T21:44:01.045Z,13.40
2018-05-29T21:46:29.486Z,13.40
2018-05-29T21:48:57.107Z,16.25
2018-05-29T21:51:24.638Z,14.50
2018-05-29T21:53:53.315Z,17.50
2018-05-29T21:56:21.092Z,15.88
2018-05-29T21:58:48.663Z,15.82
2018-05-29T22:01:16.187Z,14.68
2018-05-29T22:03:43.710Z,15.68
2018-05-29T22:06:12.299Z,15.63
2018-05-29T22:08:40.177Z,22.00
2018-05-29T22:11:07.742Z,22.80
2018-05-29T22:13:35.256Z,25.62
2018-05-29T22:16:03.567Z,22.20
2018-05-29T22:18:31.088Z,22.42
2018-05-29T22:20:59.503Z,24.45
2018-05-29T22:23:27.761Z,27.80
2018-05-29T22:25:55.278Z,25.05
2018-05-29T22:28:22.885Z,24.45
2018-05-29T22:30:50.482Z,27.15
2018-05-29T22:33:18.007Z,28.50
2018-05-29T22:35:45.539Z,28.62
2018-05-29T22:38:13.066Z,32.25
2018-05-29T22:40:41.636Z,27.42
2018-05-29T22:43:09.950Z,29.35
2018-05-29T22:45:37.518Z,26.12
2018-05-29T22:48:05.043Z,24.25
2018-05-29T22:50:33.508Z,24.00
2018-05-29T22:53:01.122Z,25.48
2018-05-29T22:55:28.688Z,24.15
2018-05-29T22:57:57.257Z,22.33
2018-05-29T23:00:24.815Z,21.25
2018-05-29T23:02:52.336Z,21.58
2018-05-29T23:05:21.351Z,22.80
2018-05-29T23:07:48.940Z,25.83
2018-05-29T23:10:17.255Z,26.05
2018-05-29T23:12:44.779Z,25.80
2018-05-29T23:15:13.319Z,27.85
2018-05-29T23:17:40.844Z,28.58
2018-05-29T23:20:09.142Z,29.52
2018-05-29T23:22:36.659Z,30.50
2018-05-29T23:25:04.175Z,34.08
2018-05-29T23:27:31.833Z,30.05
2018-05-29T23:29:59.542Z,32.47
2018-05-29T23:32:27.104Z,30.15
2018-05-29T23:34:54.616Z,32.03
2018-05-29T23:37:22.143Z,34.03
2018-05-29T23:39:50.434Z,34.50
2018-05-29T23:42:17.975Z,34.78
2018-05-29T23:44:46.283Z,33.85
2018-05-29T23:47:13.809Z,36.30
2018-05-29T23:49:41.344Z,33.55
2018-05-29T23:52:09.897Z,35.25
2018-05-29T23:54:37.419Z,36.10
2018-05-29T23:57:04.960Z,35.47
2018-05-29T23:59:32.492Z,35.67
